createdAt,value
2023-03-27T10:21:58.494Z,36.39
2023-03-27T10:25:59.137Z,34.31
2023-03-27T10:29:58.461Z,32.80
2023-03-27T10:33:58.000Z,33.54
2023-03-27T10:37:56.997Z,33.93
2023-03-27T10:41:56.561Z,34.26
2023-03-27T10:45:55.383Z,34.03
2023-03-27T10:49:54.972Z,34.09
2023-03-27T10:53:54.072Z,34.21
2023-03-27T10:57:53.472Z,33.90
2023-03-27T11:01:52.800Z,33.99
2023-03-27T11:05:51.973Z,34.00
2023-03-27T11:09:51.037Z,33.82
2023-03-27T11:13:50.513Z,33.51
2023-03-27T11:17:49.570Z,33.47
2023-03-27T11:21:48.680Z,33.09
2023-03-27T11:25:48.065Z,32.90
2023-03-27T11:29:47.480Z,31.83
2023-03-27T11:33:46.486Z,31.02
2023-03-27T11:37:45.986Z,30.99
2023-03-27T11:41:44.850Z,31.25
2023-03-27T11:45:44.496Z,30.95
2023-03-27T11:49:43.516Z,31.35
2023-03-27T11:53:42.568Z,32.01
2023-03-27T11:57:42.044Z,32.24
2023-03-27T12:01:41.025Z,32.84
2023-03-27T12:05:40.528Z,32.72
2023-03-27T12:09:40.048Z,32.64
2023-03-27T12:13:42.404Z,33.08
2023-03-27T12:17:38.541Z,33.25
2023-03-27T12:21:37.505Z,33.42
2023-03-27T12:25:37.033Z,33.61
2023-03-27T12:29:36.533Z,33.53
2023-03-27T12:33:36.003Z,33.38
2023-03-27T12:37:35.983Z,33.21
2023-03-27T12:41:34.506Z,32.95
2023-03-27T12:45:38.813Z,32.95
2023-03-27T12:49:46.345Z,32.96
2023-03-27T12:53:32.531Z,32.92
2023-03-27T12:57:31.480Z,32.32
2023-03-27T13:01:36.303Z,32.14
2023-03-27T13:05:30.035Z,32.20
2023-03-27T13:09:29.546Z,31.99
2023-03-27T13:13:28.276Z,32.19
2023-03-27T13:17:27.570Z,32.18
2023-03-27T13:21:27.027Z,32.12
2023-03-27T13:25:26.047Z,31.96
2023-03-27T13:29:25.572Z,31.95
2023-03-27T13:33:24.556Z,32.04
2023-03-27T13:37:24.027Z,32.00
2023-03-27T13:41:23.532Z,31.60
2023-03-27T13:45:22.533Z,31.50
2023-03-27T13:49:22.078Z,31.43
2023-03-27T13:53:23.171Z,31.11
2023-03-27T15:45:00.771Z,31.86
2023-03-27T18:56:32.091Z,32.85
2023-03-27T19:04:30.923Z,32.90
2023-03-27T19:08:31.377Z,32.99
2023-03-27T19:12:30.803Z,32.92
2023-03-27T19:16:30.244Z,32.95
2023-03-27T19:20:29.661Z,32.98
2023-03-27T19:24:29.137Z,32.97
2023-03-27T19:28:28.588Z,32.85
2023-03-27T19:32:28.067Z,32.92
2023-03-27T19:36:27.494Z,32.88
2023-03-27T19:40:27.004Z,32.88
2023-03-27T19:44:26.432Z,32.93
2023-03-27T19:48:25.927Z,32.89
2023-03-27T19:52:25.379Z,32.92
2023-03-27T19:56:24.872Z,32.95
2023-03-27T20:00:24.314Z,32.89
2023-03-27T20:04:23.791Z,32.82
2023-03-27T20:08:23.264Z,32.89
2023-03-27T20:12:22.745Z,32.88
2023-03-27T20:16:22.243Z,32.91
2023-03-27T20:20:21.714Z,32.88
2023-03-27T20:24:21.212Z,32.86
2023-03-27T20:28:20.749Z,32.91
2023-03-27T20:32:20.229Z,32.90
2023-03-27T20:36:19.800Z,32.88
2023-03-27T20:40:19.259Z,32.86
2023-03-27T20:44:18.879Z,32.90
2023-03-27T20:48:18.376Z,32.84
2023-03-27T20:52:17.855Z,32.87
2023-03-27T20:56:17.393Z,32.87
2023-03-27T21:00:16.960Z,32.85
2023-03-27T21:04:16.490Z,32.91
2023-03-27T21:08:15.985Z,32.86
2023-03-27T21:12:15.551Z,32.91
2023-03-27T21:16:15.253Z,32.95
2023-03-27T21:20:14.688Z,32.95
2023-03-27T21:24:14.297Z,32.96
2023-03-27T21:28:13.808Z,32.96
2023-03-27T21:32:13.427Z,32.93
2023-03-27T21:36:13.123Z,33.01
2023-03-27T21:40:12.565Z,32.99
2023-03-27T21:44:12.032Z,32.91
2023-03-27T21:48:11.643Z,32.91
2023-03-27T21:52:11.164Z,32.93
2023-03-27T21:56:10.817Z,32.89
2023-03-27T22:00:10.352Z,32.91
2023-03-27T22:04:09.943Z,32.94
2023-03-27T22:08:09.536Z,32.94
2023-03-27T22:12:09.131Z,32.94
2023-03-27T22:16:08.971Z,32.83
2023-03-27T22:20:08.365Z,32.77
2023-03-27T22:24:08.010Z,32.84
2023-03-27T22:28:07.557Z,32.81
2023-03-27T22:32:07.162Z,32.78
2023-03-27T22:36:06.928Z,32.82
2023-03-27T22:40:06.420Z,32.75
2023-03-27T22:44:05.989Z,32.78
2023-03-27T22:48:05.789Z,32.81
2023-03-27T22:52:05.285Z,32.78
2023-03-27T22:56:04.890Z,32.81
2023-03-27T23:00:04.463Z,32.73
